Time;durP1;ratioP1;P1;durP2;ratioP2;P2;SDS_P1;SDS_P2;PMS_P1;PMS_P2;Temp;Humidity;BMP_temperature;BMP_pressure;BME280_temperature;BME280_humidity;BME280_pressure;Samples;Min_cycle;Max_cycle;Signal;HPM_P1;HPM_P2
2022/04/17 00:00:57;;;;;;;19.48;6.97;;;;;;;;;;5055293;28;20435;-78
2022/04/17 00:03:23;;;;;;;15.88;6.05;;;;;;;;;;5055346;28;20120;-77
2022/04/17 00:05:50;;;;;;;14.88;6.55;;;;;;;;;;5055207;28;20454;-75
2022/04/17 00:08:16;;;;;;;10.82;5.35;;;;;;;;;;5055412;28;20021;-74
2022/04/17 00:10:42;;;;;;;17.92;6.90;;;;;;;;;;5055261;28;20033;-77
2022/04/17 00:13:08;;;;;;;22.10;10.55;;;;;;;;;;5055812;28;20090;-77
2022/04/17 00:15:34;;;;;;;10.85;5.47;;;;;;;;;;5055238;28;20025;-81
2022/04/17 00:18:00;;;;;;;13.95;6.10;;;;;;;;;;5055138;28;20028;-75
2022/04/17 00:20:26;;;;;;;16.15;5.97;;;;;;;;;;5022184;28;20204;-74
2022/04/17 00:22:52;;;;;;;15.60;5.80;;;;;;;;;;5031928;28;20088;-79
2022/04/17 00:25:18;;;;;;;12.70;6.40;;;;;;;;;;5034810;28;20033;-72
2022/04/17 00:27:45;;;;;;;22.70;6.70;;;;;;;;;;5050745;28;20079;-71
2022/04/17 00:30:11;;;;;;;10.85;7.57;;;;;;;;;;5054618;28;20443;-74
2022/04/17 00:32:38;;;;;;;12.20;5.00;;;;;;;;;;5054703;28;20103;-74
2022/04/17 00:35:06;;;;;;;12.80;7.22;;;;;;;;;;5054390;28;20029;-72
2022/04/17 00:37:33;;;;;;;16.33;8.15;;;;;;;;;;5054356;28;20096;-76
2022/04/17 00:39:59;;;;;;;16.35;8.32;;;;;;;;;;5054409;28;20086;-74
2022/04/17 00:42:25;;;;;;;13.77;6.93;;;;;;;;;;5054315;28;20464;-74
2022/04/17 00:44:51;;;;;;;13.07;6.43;;;;;;;;;;5036630;28;20498;-76
2022/04/17 00:47:17;;;;;;;22.00;12.45;;;;;;;;;;5054294;28;20456;-76
2022/04/17 00:49:44;;;;;;;14.80;9.27;;;;;;;;;;5036363;28;20040;-76
2022/04/17 00:52:10;;;;;;;8.73;5.60;;;;;;;;;;5053826;28;20033;-76
2022/04/17 00:54:39;;;;;;;8.57;4.63;;;;;;;;;;5054287;28;20100;-77
2022/04/17 00:57:05;;;;;;;12.32;7.50;;;;;;;;;;5053821;28;20029;-73
2022/04/17 00:59:32;;;;;;;10.45;6.80;;;;;;;;;;5053903;28;20082;-75
2022/04/17 01:01:58;;;;;;;9.52;6.22;;;;;;;;;;5053544;28;20040;-76
2022/04/17 01:04:24;;;;;;;7.40;4.75;;;;;;;;;;5054123;28;20442;-76
2022/04/17 01:06:50;;;;;;;7.28;5.13;;;;;;;;;;5054080;28;20023;-73
2022/04/17 01:09:17;;;;;;;16.17;7.85;;;;;;;;;;5053834;28;20021;-73
2022/04/17 01:11:43;;;;;;;20.63;10.43;;;;;;;;;;5053546;28;20045;-74
2022/04/17 01:14:12;;;;;;;13.02;6.15;;;;;;;;;;5054057;28;20541;-74
2022/04/17 01:16:38;;;;;;;11.27;7.25;;;;;;;;;;5053864;28;20104;-74
2022/04/17 01:19:11;;;;;;;9.75;6.03;;;;;;;;;;5053668;28;20029;-75
2022/04/17 01:21:40;;;;;;;9.50;4.93;;;;;;;;;;5053661;28;20021;-78
2022/04/17 01:26:56;;;;;;;17.98;8.68;;;;;;;;;;5053610;28;20079;-77
2022/04/17 01:29:27;;;;;;;10.23;5.97;;;307.60;1817.60;;;;;;5053598;28;20471;-75
2022/04/17 01:31:56;;;;;;;13.18;6.20;;;307.60;1817.60;;;;;;5053241;28;20029;-77
2022/04/17 01:34:22;;;;;;;6.60;4.20;;;307.30;1843.20;;;;;;5053316;28;20058;-76
2022/04/17 01:36:49;;;;;;;9.32;5.22;;;307.30;1843.20;;;;;;5053787;28;20101;-75
2022/04/17 01:39:16;;;;;;;13.38;6.15;;;307.40;1843.20;;;;;;5053509;28;20032;-79
2022/04/17 01:41:43;;;;;;;7.07;4.10;;;282.50;1817.60;;;;;;5053354;28;20028;-78
2022/04/17 01:44:09;;;;;;;7.88;4.97;;;307.20;1817.60;;;;;;5053408;28;20025;-77
2022/04/17 01:46:34;;;;;;;10.02;6.38;;;307.20;1817.60;;;;;;5053055;28;20025;-73
2022/04/17 01:49:00;;;;;;;14.52;7.50;;;307.40;1817.60;;;;;;5053172;28;20048;-74
2022/04/17 01:51:26;;;;;;;20.60;10.00;;;;;;;;;;5053064;28;20017;-74
2022/04/17 01:53:53;;;;;;;7.13;5.00;;;;;;;;;;5053048;28;20491;-73
2022/04/17 01:56:19;;;;;;;5.57;4.20;;;;;;;;;;5053066;28;20348;-73
2022/04/17 01:58:45;;;;;;;9.85;5.45;;;;;;;;;;5034826;28;20061;-71
2022/04/17 02:01:11;;;;;;;7.32;4.30;;;;;;;;;;5052576;28;20041;-73
2022/04/17 02:03:37;;;;;;;9.52;5.38;;;;;;;;;;5052169;28;20365;-74
2022/04/17 02:06:03;;;;;;;6.15;4.70;;;;;;;;;;5052936;28;20025;-74
2022/04/17 02:08:31;;;;;;;7.60;4.45;;;;;;;;;;5052948;28;20033;-73
2022/04/17 02:10:57;;;;;;;10.63;5.20;;;;;;;;;;5052758;28;20111;-75
2022/04/17 02:13:23;;;;;;;7.13;4.20;;;;;;;;;;5052727;28;20028;-74
2022/04/17 02:15:53;;;;;;;10.35;5.72;;;;;;;;;;5052787;28;20475;-75
2022/04/17 02:18:20;;;;;;;7.95;4.35;;;;;;;;;;5052730;28;20021;-75
2022/04/17 02:20:47;;;;;;;8.80;5.32;;;;;;;;;;5034917;28;20060;-76
2022/04/17 02:23:13;;;;;;;10.68;5.43;;;;;;;;;;5052903;28;20498;-75
2022/04/17 02:25:40;;;;;;;7.65;3.95;;;;;;;;;;5052741;28;20032;-74
2022/04/17 02:28:06;;;;;;;7.05;4.22;;;;;;;;;;5052542;28;20040;-73
2022/04/17 02:30:32;;;;;;;6.10;3.50;;;;;;;;;;5052487;28;20059;-74
2022/04/17 02:32:58;;;;;;;10.05;5.53;;;307.40;1689.60;;;;;;5052566;28;20029;-73
2022/04/17 02:35:23;;;;;;;7.93;4.78;;;307.20;1715.20;;;;;;5052645;28;20029;-73
2022/04/17 02:37:49;;;;;;;5.57;3.75;;;282.40;1740.80;;;;;;5052624;28;20029;-72
2022/04/17 02:40:15;;;;;;;8.02;4.25;;;;;;;;;;5052538;28;20384;-79
2022/04/17 02:42:42;;;;;;;8.07;4.85;;;307.20;1740.80;;;;;;5052696;28;20024;-77
2022/04/17 02:45:08;;;;;;;36.88;13.50;;;307.20;2073.60;;;;;;5052757;28;20028;-76
2022/04/17 02:47:43;;;;;;;8.80;4.93;;;282.50;1715.20;;;;;;5034402;28;20549;-74
2022/04/17 02:50:09;;;;;;;8.27;4.22;;;307.20;1715.20;;;;;;5052551;28;20471;-75
2022/04/17 02:52:35;;;;;;;5.97;4.00;;;307.20;1740.80;;;;;;5052595;28;20075;-79
2022/04/17 02:55:01;;;;;;;8.85;4.40;;;282.50;1715.20;;;;;;5052574;28;20029;-77
2022/04/17 02:57:28;;;;;;;8.52;4.60;;;307.20;1715.20;;;;;;5052266;28;20051;-80
2022/04/17 02:59:54;;;;;;;5.60;3.95;;;;;;;;;;5052339;28;20044;-77
2022/04/17 03:07:49;;;;;;;5.53;3.38;;;307.20;1715.20;;;;;;5052509;28;20103;-74
2022/04/17 03:10:15;;;;;;;3.50;3.17;;;307.20;1740.80;;;;;;5044521;28;20025;-75
2022/04/17 03:12:41;;;;;;;17.42;8.52;;;;;;;;;;5032137;28;20032;-73
2022/04/17 03:15:07;;;;;;;7.35;4.32;;;;;;;;;;5034135;28;20040;-73
2022/04/17 03:17:33;;;;;;;7.18;3.28;;;;;;;;;;5035864;28;20061;-74
2022/04/17 03:19:59;;;;;;;4.55;3.40;;;;;;;;;;5036089;28;20037;-72
2022/04/17 03:22:25;;;;;;;8.77;5.05;;;;;;;;;;5035926;28;20496;-72
2022/04/17 03:24:52;;;;;;;5.85;4.05;;;;;;;;;;5035929;28;20480;-73
2022/04/17 03:27:18;;;;;;;5.05;3.63;;;;;;;;;;5047326;28;20471;-71
2022/04/17 03:29:44;;;;;;;5.68;3.97;;;;;;;;;;5055493;28;20066;-73
2022/04/17 03:32:10;;;;;;;3.70;2.90;;;;;;;;;;5055605;28;20039;-74
2022/04/17 03:34:37;;;;;;;4.30;3.50;;;;;;;;;;5055751;28;20414;-73
2022/04/17 03:37:03;;;;;;;4.93;3.20;;;;;;;;;;5055807;28;20021;-69
2022/04/17 03:39:31;;;;;;;5.43;3.47;;;;;;;;;;5055453;28;20029;-72
2022/04/17 03:41:57;;;;;;;9.60;4.03;;;;;;;;;;5055802;28;20064;-72
2022/04/17 03:44:26;;;;;;;4.28;3.28;;;;;;;;;;5055241;28;20021;-73
2022/04/17 03:46:52;;;;;;;6.95;4.28;;;;;;;;;;5055425;28;20017;-73
2022/04/17 03:49:18;;;;;;;4.18;3.25;;;;;;;;;;5055488;28;20021;-72
2022/04/17 03:51:44;;;;;;;5.35;3.45;;;;;;;;;;5055394;28;20028;-71
2022/04/17 03:54:10;;;;;;;4.80;3.38;;;;;;;;;;5055332;28;20025;-70
2022/04/17 03:56:37;;;;;;;5.50;3.47;;;;;;;;;;5055299;28;20021;-72
2022/04/17 03:59:03;;;;;;;6.78;4.40;;;;;;;;;;5054953;28;20036;-71
2022/04/17 04:01:29;;;;;;;4.88;3.67;;;;;;;;;;5055148;28;20163;-73
2022/04/17 04:03:55;;;;;;;5.45;3.67;;;;;;;;;;5055140;28;20033;-74
2022/04/17 04:06:22;;;;;;;4.53;3.53;;;;;;;;;;5055285;28;20029;-74
2022/04/17 04:08:49;;;;;;;4.07;3.10;;;;;;;;;;5055175;28;20036;-71
2022/04/17 04:11:15;;;;;;;3.97;3.38;;;;;;;;;;5036939;28;20021;-73
2022/04/17 04:13:44;;;;;;;5.15;3.90;;;;;;;;;;5054650;28;20083;-75
2022/04/17 04:16:10;;;;;;;5.45;3.78;;;;;;;;;;5054932;28;20029;-74
2022/04/17 04:18:36;;;;;;;3.90;3.40;;;;;;;;;;5054706;28;20048;-74
2022/04/17 04:21:03;;;;;;;6.00;4.28;;;282.20;1587.20;;;;;;5054853;28;20036;-73
2022/04/17 04:23:35;;;;;;;7.00;4.55;;;282.10;1587.20;;;;;;5054736;28;20475;-73
2022/04/17 04:26:02;;;;;;;6.80;4.63;;;282.00;1587.20;;;;;;5053834;28;20025;-73
2022/04/17 04:28:34;;;;;;;6.07;4.32;;;281.90;1612.80;;;;;;5054382;28;20052;-74
2022/04/17 04:31:05;;;;;;;6.13;4.35;;;281.90;1612.80;;;;;;5054421;28;20033;-75
2022/04/17 04:33:32;;;;;;;9.75;4.10;;;282.00;1638.40;;;;;;5054508;28;20108;-73
2022/04/17 04:35:59;;;;;;;6.00;3.72;;;;;;;;;;5054589;28;20037;-74
2022/04/17 04:38:25;;;;;;;8.30;3.70;;;282.10;1587.20;;;;;;5054534;28;20063;-74
2022/04/17 04:40:54;;;;;;;6.07;4.18;;;282.00;1638.40;;;;;;5054390;28;20056;-74
2022/04/17 04:43:20;;;;;;;5.88;4.28;;;282.00;1587.20;;;;;;5054345;28;20468;-74
2022/04/17 04:51:17;;;;;;;6.72;4.40;;;;;;;;;;4973297;28;20038;-74
2022/04/17 04:53:43;;;;;;;7.38;5.22;;;282.30;1587.20;;;;;;4973122;28;20034;-72
2022/04/17 04:56:09;;;;;;;9.00;4.85;;;282.30;1587.20;;;;;;4973174;28;20042;-73
2022/04/17 04:58:36;;;;;;;5.72;4.03;;;;;;;;;;4973015;28;20034;-73
2022/04/17 05:01:02;;;;;;;7.22;4.70;;;;;;;;;;4973065;28;20125;-74
2022/04/17 05:03:28;;;;;;;7.07;5.10;;;;;;;;;;4973211;28;20395;-71
2022/04/17 05:05:54;;;;;;;11.95;7.03;;;282.10;1612.80;;;;;;4973028;28;20046;-71
2022/04/17 05:08:20;;;;;;;10.70;8.35;;;;;;;;;;4973013;28;20039;-72
2022/04/17 05:10:47;;;;;;;7.20;5.60;;;282.50;1843.20;;;;;;4973310;28;20490;-72
2022/04/17 05:13:13;;;;;;;7.50;4.40;;;282.50;1612.80;;;;;;4972745;28;20031;-74
2022/04/17 05:15:38;;;;;;;7.50;4.80;;;282.20;1612.80;;;;;;4972818;28;20038;-74
2022/04/17 05:18:04;;;;;;;7.70;4.78;;;;;;;;;;4972984;28;20500;-73
2022/04/17 05:20:33;;;;;;;8.45;4.47;;;282.10;1612.80;;;;;;4972926;28;20073;-73
2022/04/17 05:23:17;;;;;;;8.27;4.97;;;282.10;1638.40;;;;;;4956378;28;20031;-73
2022/04/17 05:25:43;;;;;;;9.10;4.97;;;;;;;;;;4972749;28;20030;-74
2022/04/17 05:28:09;;;;;;;8.13;5.93;;;;;;;;;;5006615;28;20209;-74
2022/04/17 05:30:35;;;;;;;9.82;6.38;;;;;;;;;;5053488;28;20057;-74
2022/04/17 05:33:01;;;;;;;8.38;4.22;;;281.90;1664.00;;;;;;5053512;28;20037;-73
2022/04/17 05:35:27;;;;;;;8.20;5.43;;;281.70;1689.60;;;;;;5053351;28;20025;-72
2022/04/17 05:37:53;;;;;;;7.65;5.35;;;281.70;1689.60;;;;;;5053332;28;20037;-73
2022/04/17 05:40:18;;;;;;;7.80;5.25;;;282.10;1689.60;;;;;;5053347;28;20033;-74
2022/04/17 05:42:44;;;;;;;9.23;8.20;;;282.00;1689.60;;;;;;5053250;28;20420;-73
2022/04/17 05:45:11;;;;;;;9.68;6.65;;;;;;;;;;5053155;28;20016;-73
2022/04/17 05:47:37;;;;;;;8.23;5.30;;;282.20;2022.40;;;;;;5035129;28;20099;-73
2022/04/17 05:50:03;;;;;;;9.70;6.07;;;282.20;1638.40;;;;;;5053143;28;20071;-72
2022/04/17 05:52:29;;;;;;;9.18;5.10;;;282.40;1971.20;;;;;;5052875;28;20025;-73
2022/04/17 05:54:55;;;;;;;8.00;5.00;;;;;;;;;;5053214;28;20399;-74
2022/04/17 05:57:21;;;;;;;6.15;4.82;;;282.50;1612.80;;;;;;5052932;28;20032;-74
2022/04/17 05:59:48;;;;;;;9.70;5.60;;;282.50;1638.40;;;;;;5052736;28;20044;-76
2022/04/17 06:02:15;;;;;;;7.65;5.28;;;307.20;1638.40;;;;;;5034720;28;20411;-74
2022/04/17 06:04:41;;;;;;;5.47;4.18;;;307.30;1638.40;;;;;;5052870;28;20102;-72
2022/04/17 06:07:08;;;;;;;9.82;5.82;;;307.30;1587.20;;;;;;5045207;28;20028;-73
2022/04/17 06:09:35;;;;;;;8.50;5.03;;;307.30;1612.80;;;;;;5032965;28;20436;-72
2022/04/17 06:12:01;;;;;;;6.70;4.47;;;;;;;;;;5032995;28;20066;-73
2022/04/17 06:14:27;;;;;;;6.75;4.60;;;;;;;;;;5032846;28;20431;-74
2022/04/17 06:16:53;;;;;;;6.28;3.75;;;;;;;;;;5032959;28;20025;-74
2022/04/17 06:19:19;;;;;;;15.93;5.60;;;;;;;;;;5032723;28;20041;-72
2022/04/17 06:21:45;;;;;;;12.30;6.40;;;;;;;;;;5032628;28;20095;-73
2022/04/17 06:24:12;;;;;;;11.93;5.30;;;307.60;1561.60;;;;;;5032639;28;20057;-73
2022/04/17 06:26:39;;;;;;;10.00;4.90;;;307.60;1587.20;;;;;;5037918;28;20104;-70
2022/04/17 06:29:08;;;;;;;8.73;4.75;;;;;;;;;;5019873;28;20033;-73
2022/04/17 06:31:34;;;;;;;10.75;6.68;;;;;;;;;;5032365;28;20029;-73
2022/04/17 06:34:01;;;;;;;7.30;5.13;;;307.40;1587.20;;;;;;5032386;28;20045;-73
2022/04/17 06:36:26;;;;;;;9.80;7.05;;;307.30;1612.80;;;;;;5032586;28;20036;-74
2022/04/17 06:38:52;;;;;;;9.65;6.93;;;282.50;1587.20;;;;;;5032612;28;20387;-75
2022/04/17 06:41:18;;;;;;;9.20;4.70;;;307.20;1638.40;;;;;;5032707;28;20017;-73
2022/04/17 06:43:43;;;;;;;5.55;4.07;;;282.40;1612.80;;;;;;5031834;28;20048;-72
2022/04/17 06:46:09;;;;;;;5.40;4.32;;;282.50;1587.20;;;;;;5031241;28;20389;-73
2022/04/17 06:48:35;;;;;;;7.10;5.32;;;282.50;1587.20;;;;;;5032610;28;20018;-73
2022/04/17 06:51:00;;;;;;;7.03;4.90;;;307.20;1612.80;;;;;;5035735;28;20076;-73
2022/04/17 06:53:26;;;;;;;9.73;7.10;;;307.20;1612.80;;;;;;5036414;28;20017;-74
2022/04/17 06:55:52;;;;;;;6.07;4.85;;;307.40;1587.20;;;;;;5036532;28;20525;-73
2022/04/17 06:58:19;;;;;;;7.70;5.10;;;307.40;1587.20;;;;;;5055056;28;20021;-71
2022/04/17 07:00:46;;;;;;;6.05;4.50;;;307.40;1587.20;;;;;;5055864;28;20095;-72
2022/04/17 07:03:14;;;;;;;15.02;7.05;;;307.50;1561.60;;;;;;5056076;28;20052;-70
2022/04/17 07:05:40;;;;;;;18.33;10.93;;;307.40;1587.20;;;;;;5056103;28;20029;-72
2022/04/17 07:08:07;;;;;;;8.45;6.20;;;307.50;1561.60;;;;;;5055993;28;20433;-73
2022/04/17 07:10:37;;;;;;;11.88;8.95;;;307.80;2176.00;;;;;;5038512;28;20024;-71
2022/04/17 07:13:03;;;;;;;9.10;6.60;;;307.80;1587.20;;;;;;5056063;28;20017;-71
2022/04/17 07:15:29;;;;;;;9.02;6.78;;;307.80;1561.60;;;;;;5055995;28;20021;-71
2022/04/17 07:17:55;;;;;;;9.68;5.80;;;;;;;;;;5039670;28;20037;-71
2022/04/17 07:20:22;;;;;;;7.22;5.03;;;332.80;1996.80;;;;;;5035793;28;20091;-73
2022/04/17 07:22:49;;;;;;;7.93;5.15;;;332.80;1536.00;;;;;;5035843;28;20048;-72
2022/04/17 07:25:15;;;;;;;6.40;5.00;;;;;;;;;;5035986;28;20025;-71
2022/04/17 07:27:43;;;;;;;8.93;5.47;;;;;;;;;;5049214;28;20526;-72
2022/04/17 07:30:13;;;;;;;12.20;7.03;;;333.00;1510.40;;;;;;5055552;28;20028;-72
2022/04/17 07:32:41;;;;;;;9.25;6.80;;;333.00;1510.40;;;;;;5055703;28;20040;-72
2022/04/17 07:35:08;;;;;;;9.65;6.80;;;333.20;1510.40;;;;;;5038533;28;20025;-71
2022/04/17 07:37:35;;;;;;;13.75;6.00;;;333.20;1484.80;;;;;;5035588;28;20101;-69
2022/04/17 07:40:01;;;;;;;6.68;5.28;;;;;;;;;;5035471;28;20034;-71
2022/04/17 07:42:28;;;;;;;10.55;5.15;;;333.50;1459.20;;;;;;5035469;28;20018;-72
2022/04/17 07:44:53;;;;;;;7.00;4.97;;;333.60;1459.20;;;;;;5017204;28;20041;-70
2022/04/17 07:47:19;;;;;;;7.78;5.20;;;333.40;1459.20;;;;;;5035375;28;20022;-70
2022/04/17 07:49:45;;;;;;;9.20;6.13;;;333.50;1459.20;;;;;;5035311;28;20053;-70
2022/04/17 07:52:12;;;;;;;6.63;4.60;;;;;;;;;;5035363;28;20024;-70
2022/04/17 07:54:39;;;;;;;7.45;5.30;;;358.40;1433.60;;;;;;5035148;28;20514;-69
2022/04/17 07:57:05;;;;;;;8.73;6.68;;;358.40;1433.60;;;;;;5043535;28;20430;-71
2022/04/17 07:59:31;;;;;;;10.30;6.35;;;358.40;1433.60;;;;;;5055027;28;20037;-72
2022/04/17 08:02:11;;;;;;;9.77;7.72;;;358.50;1433.60;;;;;;5053409;28;20068;-73
2022/04/17 08:04:40;;;;;;;7.13;5.57;;;358.60;1664.00;;;;;;5054945;28;20036;-72
2022/04/17 08:07:05;;;;;;;9.85;6.38;;;358.60;1433.60;;;;;;5055096;28;20105;-72
2022/04/17 08:09:31;;;;;;;8.40;4.97;;;358.70;1408.00;;;;;;5054759;28;20108;-72
2022/04/17 08:11:57;;;;;;;11.23;6.43;;;358.70;1408.00;;;;;;5054869;28;20025;-73
2022/04/17 08:14:22;;;;;;;9.68;6.25;;;358.80;1459.20;;;;;;5036654;28;20033;-72
2022/04/17 08:16:48;;;;;;;5.55;4.70;;;359.30;1459.20;;;;;;5054784;28;20054;-73
2022/04/17 08:19:14;;;;;;;12.43;6.45;;;359.30;1459.20;;;;;;5054645;28;20033;-73
2022/04/17 08:21:40;;;;;;;6.38;4.72;;;;;;;;;;5054551;28;20029;-73
2022/04/17 08:24:06;;;;;;;6.90;5.57;;;;;;;;;;5054831;28;20021;-72
2022/04/17 08:26:33;;;;;;;5.88;4.22;;;;;;;;;;5054383;28;20138;-72
2022/04/17 08:28:59;;;;;;;6.72;4.10;;;;;;;;;;5054624;28;20100;-74
2022/04/17 08:31:25;;;;;;;5.70;4.85;;;;;;;;;;5054325;28;20472;-73
2022/04/17 08:33:52;;;;;;;9.02;5.38;;;;;;;;;;5054372;28;20479;-73
2022/04/17 08:36:19;;;;;;;8.48;6.53;;;;;;;;;;5054459;28;20074;-75
2022/04/17 08:38:45;;;;;;;8.25;6.22;;;;;;;;;;5054123;28;20028;-74
2022/04/17 08:41:15;;;;;;;7.80;5.20;;;;;;;;;;5033582;28;20067;-74
2022/04/17 08:43:43;;;;;;;8.10;5.32;;;;;;;;;;5033734;28;20037;-71
2022/04/17 08:46:10;;;;;;;12.10;6.70;;;;;;;;;;5033423;28;20396;-70
2022/04/17 08:48:37;;;;;;;9.00;5.78;;;;;;;;;;5033222;28;20468;-71
2022/04/17 08:51:09;;;;;;;8.65;5.90;;;;;;;;;;5033392;28;20026;-73
2022/04/17 08:53:36;;;;;;;10.90;7.35;;;;;;;;;;5032479;28;20020;-71
2022/04/17 08:56:02;;;;;;;9.73;6.03;;;;;;;;;;5032754;28;20021;-71
2022/04/17 08:58:29;;;;;;;12.48;7.85;;;;;;;;;;5033395;28;20720;-71
2022/04/17 09:00:55;;;;;;;10.85;7.38;;;410.30;1228.80;;;;;;5014657;28;20087;-70
2022/04/17 09:03:21;;;;;;;9.77;6.63;;;;;;;;;;5033306;28;20489;-71
2022/04/17 09:05:47;;;;;;;10.60;7.20;;;435.30;1228.80;;;;;;5032853;28;20056;-70
2022/04/17 09:08:16;;;;;;;12.45;8.20;;;435.30;1433.60;;;;;;5033276;28;20017;-71
2022/04/17 09:10:52;;;;;;;7.60;5.85;;;;;;;;;;5033240;28;20048;-71
2022/04/17 09:13:26;;;;;;;7.32;4.93;;;435.60;1228.80;;;;;;5031168;28;20025;-71
2022/04/17 09:15:52;;;;;;;23.17;9.02;;;435.60;1203.20;;;;;;5033414;28;20022;-71
2022/04/17 09:18:19;;;;;;;9.25;6.85;;;435.50;1228.80;;;;;;5032478;28;20109;-71
2022/04/17 09:20:46;;;;;;;14.02;7.68;;;435.50;1228.80;;;;;;5032001;28;20033;-71
2022/04/17 09:23:12;;;;;;;11.38;8.88;;;435.50;1228.80;;;;;;5032473;28;20049;-71
2022/04/17 09:25:38;;;;;;;19.13;9.55;;;435.60;1228.80;;;;;;5032611;28;20022;-70
2022/04/17 09:28:08;;;;;;;12.45;8.60;;;;;;;;;;5049854;28;20021;-73
2022/04/17 09:30:39;;;;;;;13.07;10.68;;;435.70;1177.60;;;;;;5034953;28;20419;-71
2022/04/17 09:33:05;;;;;;;;;;;;;;;;;;5033341;28;20018;-73
2022/04/17 09:35:32;;;;;;;22.65;15.32;;;460.90;1203.20;;;;;;5032981;28;19905;-72
2022/04/17 09:37:59;;;;;;;10.98;8.13;;;436.10;1177.60;;;;;;5032569;28;20024;-71
2022/04/17 09:40:26;;;;;;;11.68;8.32;;;460.80;1203.20;;;;;;5014887;28;20460;-74
2022/04/17 09:43:07;;;;;;;19.52;10.30;;;;;;;;;;5032286;28;20014;-72
2022/04/17 09:45:33;;;;;;;14.32;9.88;;;461.10;1152.00;;;;;;5031107;28;20036;-70
2022/04/17 09:47:59;;;;;;;10.10;6.72;;;;;;;;;;5031461;28;20037;-71
2022/04/17 09:50:35;;;;;;;12.93;8.98;;;;;;;;;;5014626;28;20033;-72
2022/04/17 09:53:05;;;;;;;12.88;8.52;;;;;;;;;;5032236;28;20029;-73
2022/04/17 09:55:38;;;;;;;11.73;9.93;;;563.70;998.40;;;;;;5032951;28;20024;-73
2022/04/17 09:58:04;;;;;;;12.30;10.13;;;;;;;;;;5049135;28;20039;-74
2022/04/17 10:00:40;;;;;;;12.85;9.45;;;;;;;;;;5052857;28;20040;-72
2022/04/17 10:03:09;;;;;;;9.40;7.80;;;;;;;;;;5052657;28;20052;-70
2022/04/17 10:05:35;;;;;;;20.30;18.05;;;589.20;921.60;;;;;;5044607;28;20025;-73
2022/04/17 10:08:01;;;;;;;14.45;10.55;;;;;;;;;;5033123;28;20022;-74
2022/04/17 10:10:27;;;;;;;16.65;9.93;;;563.60;972.80;;;;;;5033153;28;20022;-73
2022/04/17 10:12:54;;;;;;;8.50;7.60;;;;;;;;;;5032755;28;20383;-77
2022/04/17 10:15:20;;;;;;;9.65;7.50;;;;;;;;;;5032963;28;20029;-76
2022/04/17 10:17:46;;;;;;;24.60;12.52;;;;;;;;;;5031671;28;20030;-76
2022/04/17 10:20:14;;;;;;;14.95;11.38;;;;;;;;;;5033006;28;20033;-76
2022/04/17 10:22:43;;;;;;;18.85;10.00;;;;;;;;;;5032881;28;20030;-74
2022/04/17 10:25:09;;;;;;;8.25;7.25;;;;;;;;;;5032003;28;20052;-74
2022/04/17 10:27:45;;;;;;;18.48;11.25;;;615.30;819.20;;;;;;5044901;28;20075;-75
2022/04/17 10:30:18;;;;;;;11.20;7.47;;;615.20;819.20;;;;;;5052893;28;20021;-75
2022/04/17 10:32:44;;;;;;;10.18;6.65;;;;;;;;;;5052990;28;20082;-75
2022/04/17 10:35:16;;;;;;;8.63;6.82;;;;;;;;;;5052545;28;20538;-73
2022/04/17 10:38:19;;;;;;;9.50;6.40;;;615.30;819.20;;;;;;5052415;28;20025;-73
2022/04/17 10:41:14;;;;;;;11.35;7.50;;;;;;;;;;5052310;28;20033;-72
2022/04/17 10:43:44;;;;;;;7.90;5.85;;;;;;;;;;5051212;28;20506;-72
2022/04/17 10:46:13;;;;;;;7.03;5.15;;;;;;;;;;5052399;28;20032;-73
2022/04/17 10:48:46;;;;;;;9.63;5.35;;;;;;;;;;5052692;28;20022;-72
2022/04/17 10:51:21;;;;;;;9.18;7.10;;;614.60;844.80;;;;;;5052460;28;20028;-73
2022/04/17 10:54:00;;;;;;;10.68;7.72;;;;;;;;;;5052687;28;20468;-72
2022/04/17 10:56:26;;;;;;;8.50;5.72;;;;;;;;;;5052185;28;20028;-72
2022/04/17 10:58:53;;;;;;;9.23;6.18;;;;;;;;;;5052135;28;20074;-72
2022/04/17 11:01:38;;;;;;;11.82;7.28;;;;;;;;;;5051980;28;20141;-72
2022/04/17 11:04:15;;;;;;;11.90;8.50;;;;;;;;;;5052445;28;20392;-73
2022/04/17 11:06:42;;;;;;;10.38;8.55;;;;;;;;;;5052288;28;20032;-72
2022/04/17 11:09:24;;;;;;;14.00;8.77;;;;;;;;;;5052094;28;20375;-72
2022/04/17 11:11:51;;;;;;;11.20;7.22;;;;;;;;;;5051930;28;20511;-72
2022/04/17 11:14:22;;;;;;;7.22;6.15;;;;;;;;;;5051971;28;20048;-74
2022/04/17 11:16:51;;;;;;;17.45;9.43;;;;;;;;;;5051859;28;20029;-76
2022/04/17 11:19:22;;;;;;;11.43;9.32;;;512.80;947.20;;;;;;5051935;28;20037;-76
2022/04/17 11:21:50;;;;;;;8.60;6.00;;;;;;;;;;5051954;28;20032;-76
2022/04/17 11:24:16;;;;;;;10.70;7.32;;;;;;;;;;5052026;28;20095;-76
2022/04/17 11:26:54;;;;;;;11.57;7.05;;;;;;;;;;5051718;28;20013;-74
2022/04/17 11:29:38;;;;;;;11.25;5.75;;;563.90;896.00;;;;;;5051816;28;20029;-75
2022/04/17 11:32:26;;;;;;;8.27;5.28;;;563.90;1049.60;;;;;;5051931;28;20021;-74
2022/04/17 11:34:54;;;;;;;12.13;10.50;;;563.30;947.20;;;;;;5044431;28;20040;-77
2022/04/17 11:37:21;;;;;;;11.05;9.20;;;;;;;;;;5054882;28;20059;-73
2022/04/17 11:39:48;;;;;;;9.02;6.55;;;512.30;998.40;;;;;;5036740;28;20127;-72
2022/04/17 11:42:14;;;;;;;10.00;6.07;;;;;;;;;;5055184;28;20448;-74
2022/04/17 11:44:43;;;;;;;8.25;5.10;;;;;;;;;;5055442;28;20035;-74
2022/04/17 11:47:16;;;;;;;9.35;6.50;;;;;;;;;;5037664;28;20021;-72
2022/04/17 11:49:46;;;;;;;10.68;5.78;;;;;;;;;;5055142;28;20025;-73
2022/04/17 11:52:13;;;;;;;13.85;11.55;;;;;;;;;;5055146;28;20025;-72
2022/04/17 11:54:40;;;;;;;15.65;9.75;;;;;;;;;;5055158;28;20025;-73
2022/04/17 11:57:06;;;;;;;23.90;11.02;;;;;;;;;;5054920;28;20139;-73
2022/04/17 11:59:52;;;;;;;17.63;10.57;;;;;;;;;;5054853;28;20029;-74
2022/04/17 12:02:19;;;;;;;13.32;7.93;;;;;;;;;;5054642;28;20519;-75
2022/04/17 12:04:49;;;;;;;8.15;5.72;;;;;;;;;;5054941;28;20029;-73
2022/04/17 12:07:21;;;;;;;10.00;5.88;;;;;;;;;;5037113;28;20584;-75
2022/04/17 12:09:48;;;;;;;12.93;8.90;;;;;;;;;;5038118;28;20021;-76
2022/04/17 12:12:18;;;;;;;30.30;20.52;;;;;;;;;;5034875;28;20108;-77
2022/04/17 12:14:46;;;;;;;21.55;13.95;;;;;;;;;;5034725;28;20018;-77
2022/04/17 12:17:13;;;;;;;16.60;11.18;;;;;;;;;;5034508;28;20018;-73
2022/04/17 12:19:39;;;;;;;13.48;8.23;;;;;;;;;;5034450;28;20056;-74
2022/04/17 12:22:12;;;;;;;12.25;8.48;;;;;;;;;;5034726;28;20099;-74
2022/04/17 12:24:43;;;;;;;13.52;9.25;;;;;;;;;;5034737;28;20415;-73
2022/04/17 12:27:09;;;;;;;14.52;10.20;;;;;;;;;;5042365;28;20035;-73
2022/04/17 12:29:38;;;;;;;25.25;16.08;;;;;;;;;;5049336;28;20036;-74
2022/04/17 12:32:13;;;;;;;24.42;15.68;;;;;;;;;;5016577;28;20083;-74
2022/04/17 12:34:39;;;;;;;19.13;12.38;;;;;;;;;;5031486;28;20203;-73
2022/04/17 12:37:26;;;;;;;30.10;19.02;;;;;;;;;;5031726;28;20014;-74
2022/04/17 12:39:53;;;;;;;23.00;13.82;;;;;;;;;;5034019;28;20498;-74
2022/04/17 12:42:19;;;;;;;30.52;16.83;;;;;;;;;;5034515;28;20017;-74
2022/04/17 12:44:47;;;;;;;37.47;21.88;;;;;;;;;;5016275;28;20033;-76
2022/04/17 12:47:16;;;;;;;26.02;16.13;;;;;;;;;;5033184;28;20021;-75
2022/04/17 12:49:43;;;;;;;17.30;10.95;;;;;;;;;;5033732;28;20472;-74
2022/04/17 12:52:09;;;;;;;28.70;16.92;;;486.40;998.40;;;;;;5033669;28;20067;-74
2022/04/17 12:54:38;;;;;;;62.15;38.10;;;;;;;;;;5034013;28;20029;-75
2022/04/17 12:57:10;;;;;;;23.02;15.50;;;486.80;1126.40;;;;;;5041242;28;20039;-71
2022/04/17 12:59:45;;;;;;;20.08;14.43;;;486.80;972.80;;;;;;5054028;28;20029;-73
2022/04/17 13:02:15;;;;;;;14.27;7.85;;;;;;;;;;5053445;28;20040;-75
2022/04/17 13:04:53;;;;;;;28.70;20.00;;;;;;;;;;5037838;28;20032;-77
2022/04/17 13:07:19;;;;;;;17.35;12.93;;;;;;;;;;5033202;28;20375;-75
2022/04/17 13:09:55;;;;;;;34.30;22.13;;;;;;;;;;5015415;28;20168;-74
2022/04/17 13:12:41;;;;;;;24.60;15.25;;;;;;;;;;5033804;28;20025;-72
2022/04/17 13:15:08;;;;;;;17.88;12.27;;;;;;;;;;5033195;28;20017;-72
2022/04/17 13:17:49;;;;;;;17.30;11.95;;;;;;;;;;5033257;28;20158;-76
2022/04/17 13:20:18;;;;;;;29.95;18.52;;;;;;;;;;5012976;28;20554;-75
2022/04/17 13:22:44;;;;;;;32.75;18.35;;;;;;;;;;5013997;28;20026;-72
2022/04/17 13:25:11;;;;;;;21.02;13.13;;;;;;;;;;5013845;28;20030;-73
2022/04/17 13:27:37;;;;;;;24.77;14.45;;;;;;;;;;5032771;28;20124;-73
2022/04/17 13:30:04;;;;;;;36.17;21.35;;;;;;;;;;5033597;28;20037;-72
2022/04/17 13:32:30;;;;;;;21.73;14.45;;;;;;;;;;5032764;28;20061;-72
2022/04/17 13:34:56;;;;;;;17.15;10.82;;;;;;;;;;5032827;28;20045;-68
2022/04/17 13:40:08;;;;;;;15.38;11.20;;;;;;;;;;5032732;28;20087;-73
2022/04/17 13:42:38;;;;;;;13.80;10.07;;;;;;;;;;5033310;28;20109;-73
2022/04/17 13:45:05;;;;;;;13.38;9.80;;;;;;;;;;5033054;28;20546;-73
2022/04/17 13:47:31;;;;;;;16.38;8.68;;;;;;;;;;5032991;28;20030;-75
2022/04/17 13:49:57;;;;;;;17.50;11.07;;;;;;;;;;5033084;28;20024;-75
2022/04/17 13:52:25;;;;;;;9.07;6.93;;;;;;;;;;5033068;28;20013;-76
2022/04/17 13:54:51;;;;;;;7.30;5.93;;;;;;;;;;5033075;28;20120;-76
2022/04/17 13:57:17;;;;;;;19.95;11.23;;;;;;;;;;5041298;28;20459;-74